Time;durP1;ratioP1;P1;durP2;ratioP2;P2;SDS_P1;SDS_P2;PMS_P1;PMS_P2;Temp;Humidity;BMP_temperature;BMP_pressure;BME280_temperature;BME280_humidity;BME280_pressure;Samples;Min_cycle;Max_cycle;Signal;HPM_P1;HPM_P2
2023/05/02 00:01:14;;;;;;;34.03;16.03;;;;;;;40.19;34.57;100976.75;5100984;28;20429;-82
2023/05/02 00:03:43;;;;;;;39.23;15.87;;;;;;;40.22;34.83;100985.06;5095216;28;20413;-81
2023/05/02 00:16:16;;;;;;;27.07;13.20;;;;;;;40.13;34.78;100970.66;5100261;28;20455;-82
2023/05/02 00:18:43;;;;;;;41.10;16.53;;;;;;;40.11;35.14;100972.91;5113893;28;20428;-84
2023/05/02 00:21:10;;;;;;;39.47;17.40;;;;;;;40.08;34.51;100970.81;5113967;28;20427;-82
2023/05/02 00:23:36;;;;;;;26.47;14.93;;;;;;;40.03;34.95;100963.63;5110549;28;20425;-81
2023/05/02 00:26:03;;;;;;;31.53;16.20;;;;;;;40.05;34.54;100966.03;5093139;28;20515;-82
2023/05/02 00:28:29;;;;;;;38.67;15.27;;;;;;;39.96;34.17;100963.28;5092523;28;20424;-82
2023/05/02 00:30:55;;;;;;;29.23;12.40;;;;;;;39.98;34.95;100958.34;5094591;28;20845;-81
2023/05/02 00:33:21;;;;;;;36.33;14.73;;;;;;;40.06;34.22;100962.19;5093107;28;20503;-82
2023/05/02 00:35:47;;;;;;;37.90;16.23;;;;;;;39.99;33.99;100959.13;5093087;28;20185;-82
2023/05/02 00:38:13;;;;;;;31.53;14.80;;;;;;;40.02;34.51;100953.88;5092743;28;20441;-81
2023/05/02 00:40:44;;;;;;;24.20;13.87;;;;;;;39.98;34.51;100942.03;5098615;28;20568;-81
2023/05/02 00:43:12;;;;;;;29.03;14.47;;;;;;;40.01;34.52;100946.00;5126728;27;20190;-81
2023/05/02 00:45:42;;;;;;;35.40;15.50;;;;;;;39.89;34.55;100937.69;5113366;28;20542;-81
2023/05/02 00:48:09;;;;;;;31.50;15.47;;;;;;;39.97;34.04;100942.34;5113229;28;20441;-82
2023/05/02 00:50:37;;;;;;;30.53;11.73;;;;;;;40.01;33.53;100944.09;5112900;28;20500;-81
2023/05/02 00:53:04;;;;;;;22.13;11.80;;;;;;;39.77;33.72;100935.59;5112870;28;20455;-82
2023/05/02 00:55:33;;;;;;;42.07;13.87;;;;;;;39.75;34.27;100924.25;5113202;28;20441;-83
2023/05/02 00:58:05;;;;;;;33.23;14.30;;;;;;;39.81;34.01;100935.78;5112990;28;20424;-84
2023/05/02 01:00:49;;;;;;;32.80;13.57;;;;;;;39.78;34.26;100933.69;5109067;28;20761;-82
2023/05/02 01:03:51;;;;;;;34.50;15.67;;;;;;;39.85;34.50;100931.31;5107206;28;20455;-84
2023/05/02 01:06:43;;;;;;;34.90;16.03;;;;;;;39.64;34.36;100934.63;5079561;28;20463;-83
2023/05/02 01:09:43;;;;;;;43.83;17.07;;;;;;;39.61;34.75;100937.97;5113946;28;20398;-82
2023/05/02 01:12:28;;;;;;;31.63;13.70;;;;;;;39.41;34.88;100933.91;5112789;28;20428;-81
2023/05/02 01:14:57;;;;;;;31.97;13.43;;;;;;;39.69;34.63;100937.19;5108972;28;20523;-82
2023/05/02 01:17:28;;;;;;;24.07;14.10;;;;;;;39.69;34.67;100925.53;5092074;28;20436;-81
2023/05/02 01:19:57;;;;;;;41.40;13.67;;;;;;;39.63;34.34;100927.59;5092395;28;20444;-81
2023/05/02 01:22:28;;;;;;;26.17;14.37;;;;;;;39.64;34.51;100922.97;5092244;28;20445;-81
2023/05/02 01:24:59;;;;;;;32.17;13.83;;;;;;;39.73;34.52;100916.44;5091897;28;20519;-81
2023/05/02 01:27:54;;;;;;;30.60;13.43;;;;;;;39.75;34.47;100918.84;5092053;28;20437;-82
2023/05/02 01:30:23;;;;;;;30.27;11.63;;;;;;;39.64;34.32;100915.63;5092373;28;20420;-82
2023/05/02 01:32:52;;;;;;;31.57;13.10;;;;;;;39.67;34.07;100922.34;5092224;28;20416;-83
2023/05/02 01:35:20;;;;;;;27.20;11.07;;;;;;;39.74;34.24;100917.25;5091887;28;20494;-83
2023/05/02 01:37:48;;;;;;;31.20;14.80;;;;;;;39.78;33.94;100928.25;5091847;28;20421;-82
2023/05/02 01:40:21;;;;;;;19.60;10.97;;;;;;;39.70;34.00;100919.78;5091611;28;20864;-82
2023/05/02 01:42:50;;;;;;;31.80;11.63;;;;;;;39.74;34.18;100923.47;5091960;28;20452;-81
2023/05/02 01:45:18;;;;;;;28.07;12.67;;;;;;;39.78;33.84;100911.97;5091900;28;20841;-80
2023/05/02 01:47:45;;;;;;;28.37;13.50;;;;;;;39.81;33.68;100914.06;5091870;28;20453;-81
2023/05/02 01:50:15;;;;;;;27.80;13.60;;;;;;;39.64;34.28;100896.59;5092121;28;20527;-81
2023/05/02 01:52:43;;;;;;;25.67;11.60;;;;;;;39.73;34.47;100921.88;5091773;28;20428;-82
2023/05/02 01:55:14;;;;;;;27.77;10.90;;;;;;;39.66;34.37;100921.53;5091624;28;20542;-82
2023/05/02 01:57:43;;;;;;;30.67;15.33;;;;;;;39.74;34.33;100922.66;5091732;28;20474;-82
2023/05/02 02:00:11;;;;;;;32.53;11.20;;;;;;;39.67;34.28;100931.28;5091711;28;20433;-82
2023/05/02 02:02:40;;;;;;;22.53;11.13;;;;;;;39.66;33.81;100921.53;5091209;28;20432;-82
2023/05/02 02:05:08;;;;;;;26.10;11.00;;;;;;;39.61;34.11;100921.69;5091364;28;20472;-82
2023/05/02 02:07:34;;;;;;;23.37;11.30;;;;;;;39.54;33.83;100921.34;5091401;28;20475;-82
2023/05/02 02:10:00;;;;;;;27.23;11.40;;;;;;;39.50;33.95;100923.06;5091486;28;20792;-82
2023/05/02 02:12:31;;;;;;;34.67;10.30;;;;;;;39.62;33.68;100919.78;5090705;28;20502;-81
2023/05/02 02:15:08;;;;;;;24.60;7.40;;;;;;;39.46;33.54;100909.31;5091411;28;20456;-81
2023/05/02 02:17:42;;;;;;;17.53;9.80;;;;;;;39.50;33.71;100917.63;5091231;28;20797;-82
2023/05/02 02:20:10;;;;;;;22.13;9.07;;;;;;;39.61;33.46;100913.56;5091710;28;20429;-82
2023/05/02 02:22:40;;;;;;;36.53;10.80;;;;;;;39.48;34.15;100909.03;5092750;28;20417;-81
2023/05/02 02:25:11;;;;;;;24.27;10.17;;;;;;;39.49;34.15;100902.47;5091002;28;20488;-82
2023/05/02 02:27:39;;;;;;;22.17;11.10;;;;;;;39.61;34.28;100916.25;5091297;28;20423;-81
2023/05/02 02:30:07;;;;;;;27.47;10.90;;;;;;;39.59;33.91;100902.16;5091400;28;20936;-81
2023/05/02 02:32:58;;;;;;;25.63;8.63;;;;;;;39.65;33.84;100911.78;5089101;28;20449;-81
2023/05/02 02:35:36;;;;;;;21.87;9.40;;;;;;;39.60;33.77;100911.94;5092598;28;20495;-81
2023/05/02 02:38:59;;;;;;;26.90;9.80;;;;;;;39.59;34.03;100918.44;5074831;28;20433;-81
2023/05/02 02:41:38;;;;;;;27.83;9.37;;;;;;;39.59;33.91;100918.44;5033800;28;20417;-81
2023/05/02 02:44:34;;;;;;;18.23;10.63;;;;;;;39.61;34.36;100913.56;5084550;28;20478;-80
2023/05/02 02:47:18;;;;;;;25.10;11.23;;;;;;;39.63;33.91;100914.03;5090898;28;20518;-82
2023/05/02 02:49:54;;;;;;;33.17;10.73;;;;;;;39.66;34.04;100924.25;5091339;28;20425;-81
2023/05/02 02:52:39;;;;;;;27.80;9.30;;;;;;;39.70;34.11;100918.97;5091324;28;21013;-81
2023/05/02 02:55:16;;;;;;;27.43;10.50;;;;;;;39.63;34.16;100916.72;5091103;28;20437;-82
2023/05/02 02:58:01;;;;;;;27.27;9.90;;;;;;;39.63;34.30;100922.16;5091186;28;20424;-81
2023/05/02 03:00:28;;;;;;;28.60;8.60;;;;;;;39.59;34.25;100920.38;5091317;28;21015;-81
2023/05/02 03:02:55;;;;;;;27.13;11.30;;;;;;;39.63;34.14;100921.38;5091222;28;20589;-82
2023/05/02 03:05:25;;;;;;;20.97;10.03;;;;;;;39.54;34.14;100918.63;5091164;28;20468;-81
2023/05/02 03:07:51;;;;;;;25.70;9.13;;;;;;;39.57;34.66;100912.53;5074224;28;20582;-82
2023/05/02 03:10:17;;;;;;;20.00;11.13;;;;;;;39.67;34.37;100916.91;5090867;28;20467;-82
2023/05/02 03:12:43;;;;;;;25.20;9.63;;;;;;;39.61;34.34;100901.88;5074119;28;20421;-81
2023/05/02 03:15:22;;;;;;;29.00;12.67;;;;;;;39.64;34.44;100915.63;5090503;28;20532;-81
2023/05/02 03:17:48;;;;;;;23.00;10.37;;;;;;;39.60;34.88;100911.13;5091108;28;20485;-82
2023/05/02 03:20:13;;;;;;;30.47;9.63;;;;;;;39.60;34.47;100911.94;5089744;28;20416;-81
2023/05/02 03:22:40;;;;;;;24.20;9.53;;;;;;;39.62;34.48;100908.91;5092397;28;20436;-82
2023/05/02 03:25:06;;;;;;;26.27;9.67;;;;;;;39.65;34.50;100903.63;5093782;28;20517;-82
2023/05/02 03:27:32;;;;;;;20.23;9.57;;;;;;;39.68;34.45;100903.00;5094424;28;20462;-81
2023/05/02 03:29:59;;;;;;;22.30;8.10;;;;;;;39.70;34.56;100900.78;5094771;28;20433;-81
2023/05/02 03:32:25;;;;;;;24.23;10.83;;;;;;;39.72;34.51;100909.41;5094281;28;20526;-81
2023/05/02 03:34:51;;;;;;;24.77;11.07;;;;;;;39.67;34.81;100915.00;5094303;28;20429;-81
2023/05/02 03:37:17;;;;;;;26.90;11.67;;;;;;;39.70;34.66;100911.63;5094335;28;20432;-81
2023/05/02 03:39:43;;;;;;;28.30;11.90;;;;;;;39.68;34.63;100913.88;5093506;28;20591;-81
2023/05/02 03:42:09;;;;;;;31.20;11.30;;;;;;;39.72;34.84;100912.13;5095321;28;20179;-82
2023/05/02 03:44:35;;;;;;;28.83;10.50;;;;;;;39.61;34.77;100910.84;5093868;28;20453;-80
2023/05/02 03:47:01;;;;;;;29.50;11.60;;;;;;;39.71;34.47;100915.94;5093455;28;20482;-82
2023/05/02 03:49:27;;;;;;;31.43;14.87;;;;;;;39.68;34.23;100918.50;5094510;28;20189;-82
2023/05/02 03:51:53;;;;;;;17.03;10.47;;;;;;;39.65;34.24;100917.22;5093555;28;20425;-82
2023/05/02 03:54:19;;;;;;;39.50;12.73;;;;;;;39.50;34.84;100920.34;5093900;28;20562;-81
2023/05/02 03:56:45;;;;;;;27.17;10.57;;;;;;;39.57;34.83;100919.88;5093588;28;20183;-81
2023/05/02 03:59:12;;;;;;;16.37;9.50;;;;;;;39.56;35.06;100924.53;5094013;28;20201;-82
2023/05/02 04:01:38;;;;;;;26.77;15.23;;;;;;;39.57;34.77;100920.69;5093600;28;20428;-84
2023/05/02 04:04:04;;;;;;;34.93;14.70;;;;;;;39.57;34.87;100917.19;5093552;28;20413;-83
2023/05/02 04:06:31;;;;;;;25.23;12.27;;;;;;;39.65;34.81;100922.63;5093846;28;20182;-83
2023/05/02 04:08:58;;;;;;;25.37;10.60;;;;;;;39.53;34.62;100917.00;5093981;28;20428;-83
2023/05/02 04:11:26;;;;;;;26.90;11.07;;;;;;;39.57;34.59;100914.47;5093740;28;20538;-83
2023/05/02 04:13:52;;;;;;;25.57;9.03;;;;;;;39.59;34.78;100904.88;5094833;28;20421;-83
2023/05/02 04:16:18;;;;;;;22.87;9.53;;;;;;;39.68;34.73;100910.38;5092991;28;20441;-81
2023/05/02 04:18:44;;;;;;;28.93;10.37;;;;;;;39.63;34.68;100903.16;5093658;28;20245;-82
2023/05/02 04:21:09;;;;;;;28.47;10.20;;;;;;;39.61;34.28;100891.03;5093451;28;20178;-82
2023/05/02 04:23:35;;;;;;;19.67;10.07;;;;;;;39.66;34.32;100894.41;5093281;28;20182;-82
2023/05/02 04:26:02;;;;;;;22.03;9.53;;;;;;;39.63;33.96;100897.72;5092885;28;20718;-81
2023/05/02 04:28:28;;;;;;;28.13;9.13;;;;;;;39.64;33.94;100895.81;5093454;28;20416;-80
2023/05/02 04:30:56;;;;;;;25.70;8.50;;;;;;;39.60;34.02;100897.56;5093092;28;20432;-82
2023/05/02 04:33:23;;;;;;;19.83;9.40;;;;;;;39.67;34.34;100897.91;5093669;28;20247;-82
2023/05/02 04:35:49;;;;;;;26.10;10.50;;;;;;;39.68;34.14;100896.78;5093453;28;20508;-82
2023/05/02 04:38:16;;;;;;;22.40;9.30;;;;;;;39.69;34.37;100888.31;5092756;28;20444;-82
2023/05/02 04:40:42;;;;;;;31.10;9.53;;;;;;;39.43;33.50;100863.03;5093082;28;20460;-81
2023/05/02 04:43:08;;;;;;;30.43;9.90;;;;;;;39.58;33.97;100873.41;5093020;28;20421;-82
2023/05/02 04:45:35;;;;;;;23.57;7.87;;;;;;;39.64;33.98;100888.47;5093277;28;20491;-82
2023/05/02 04:48:02;;;;;;;23.63;10.40;;;;;;;39.49;33.65;100864.47;5094064;28;20444;-82
2023/05/02 04:50:28;;;;;;;39.53;9.80;;;;;;;39.47;33.41;100869.41;5092897;28;20470;-82
2023/05/02 04:52:54;;;;;;;30.13;9.53;;;;;;;39.63;33.78;100895.00;5092717;28;20495;-81
2023/05/02 04:55:20;;;;;;;27.70;12.77;;;;;;;39.68;34.17;100908.44;5092669;28;20444;-82
2023/05/02 04:57:46;;;;;;;22.73;10.73;;;;;;;39.67;34.33;100898.72;5092716;28;20452;-82
2023/05/02 05:00:13;;;;;;;16.83;10.33;;;;;;;39.67;34.34;100908.78;5092597;28;20421;-82
2023/05/02 05:02:38;;;;;;;29.83;11.77;;;;;;;39.66;34.21;100905.25;5092617;28;20741;-81
2023/05/02 05:05:05;;;;;;;26.73;10.50;;;;;;;39.69;34.63;100906.53;5092648;28;20552;-82
2023/05/02 05:07:31;;;;;;;18.33;9.77;;;;;;;39.75;34.11;100908.78;5092521;28;20453;-82
2023/05/02 05:09:57;;;;;;;24.80;9.60;;;;;;;39.74;33.72;100909.88;5092539;28;20428;-81
2023/05/02 05:12:23;;;;;;;33.27;12.13;;;;;;;39.69;34.54;100920.09;5092683;28;20420;-82
2023/05/02 05:14:50;;;;;;;29.13;12.90;;;;;;;39.64;33.89;100921.03;5092471;28;20417;-82
2023/05/02 05:17:17;;;;;;;31.70;12.50;;;;;;;39.61;34.51;100929.03;5093778;28;21023;-81
2023/05/02 05:19:43;;;;;;;30.20;12.63;;;;;;;39.64;34.61;100926.47;5092113;28;20504;-81
2023/05/02 05:22:09;;;;;;;28.70;13.80;;;;;;;39.59;34.53;100925.78;5091954;28;20799;-81
2023/05/02 05:24:35;;;;;;;29.03;12.60;;;;;;;39.59;34.58;100936.66;5091720;28;20998;-82
2023/05/02 05:27:02;;;;;;;30.80;14.60;;;;;;;39.61;34.97;100934.47;5092030;28;20444;-82
2023/05/02 05:29:31;;;;;;;34.13;23.40;;;;;;;39.60;35.11;100936.38;5092012;28;20186;-81
2023/05/02 05:31:58;;;;;;;48.50;22.40;;;;;;;39.60;35.22;100943.72;5092514;28;20436;-81
2023/05/02 05:34:24;;;;;;;56.33;22.63;;;;;;;39.59;34.82;100947.50;5092024;28;20963;-82
2023/05/02 05:36:50;;;;;;;42.67;22.13;;;;;;;39.63;35.12;100957.47;5092049;28;20428;-82
2023/05/02 05:39:17;;;;;;;36.00;22.90;;;;;;;39.49;34.78;100951.34;5091977;28;20478;-81
2023/05/02 05:41:43;;;;;;;46.40;23.20;;;;;;;39.56;35.50;100959.03;5092259;28;20446;-82
2023/05/02 05:44:09;;;;;;;35.57;18.73;;;;;;;39.58;35.12;100965.72;5091594;28;20512;-81
2023/05/02 05:46:35;;;;;;;35.83;18.00;;;;;;;39.57;35.13;100960.59;5090980;28;20197;-82
2023/05/02 05:49:01;;;;;;;31.17;18.10;;;;;;;39.41;35.33;100960.22;5091407;28;20186;-83
2023/05/02 05:51:27;;;;;;;38.87;17.67;;;;;;;39.49;34.95;100957.56;5091633;28;20174;-82
2023/05/02 05:53:53;;;;;;;33.43;18.53;;;;;;;39.45;34.76;100958.50;5091578;28;20677;-82
2023/05/02 05:56:19;;;;;;;40.77;18.23;;;;;;;39.51;35.30;100973.53;5091568;28;20972;-82
2023/05/02 05:58:45;;;;;;;37.53;20.93;;;;;;;39.49;35.10;100982.00;5091526;28;20431;-81
2023/05/02 06:01:11;;;;;;;32.27;16.93;;;;;;;39.35;34.91;100980.47;5091530;28;20182;-81
2023/05/02 06:03:37;;;;;;;42.33;18.53;;;;;;;39.35;34.57;100986.75;5091761;28;20421;-80
2023/05/02 06:06:03;;;;;;;38.30;20.00;;;;;;;39.31;34.75;100993.09;5091563;28;20457;-81
2023/05/02 06:08:29;;;;;;;36.53;17.33;;;;;;;39.18;34.89;100989.38;5091377;28;20609;-82
2023/05/02 06:10:55;;;;;;;43.13;20.13;;;;;;;39.04;34.86;101005.72;5093172;28;20962;-81
2023/05/02 06:13:21;;;;;;;33.73;18.60;;;;;;;39.13;34.81;101006.53;5092557;28;20785;-82
2023/05/02 06:15:47;;;;;;;33.17;16.60;;;;;;;39.10;35.10;101004.47;5091257;28;20548;-82
2023/05/02 06:18:16;;;;;;;35.23;17.87;;;;;;;39.24;34.95;100990.84;5092195;28;20420;-82
2023/05/02 06:20:44;;;;;;;50.50;19.20;;;;;;;39.17;34.64;100980.44;5074709;28;20478;-82
2023/05/02 06:23:14;;;;;;;49.93;23.10;;;;;;;39.31;34.74;100991.19;5092767;28;20884;-81
2023/05/02 06:25:41;;;;;;;33.30;17.10;;;;;;;39.30;34.45;101007.78;5091028;28;21061;-82
2023/05/02 06:28:10;;;;;;;33.73;18.23;;;;;;;39.37;34.46;101008.94;5087127;28;20437;-81
2023/05/02 06:30:40;;;;;;;31.07;17.03;;;;;;;39.45;34.57;101002.72;5092728;28;20804;-81
2023/05/02 06:33:11;;;;;;;35.53;17.60;;;;;;;39.43;34.49;101006.88;5092956;28;20428;-81
2023/05/02 06:35:41;;;;;;;36.00;18.83;;;;;;;39.20;34.90;101012.34;5092493;28;20517;-81
2023/05/02 06:38:07;;;;;;;37.07;18.90;;;;;;;39.33;34.83;101026.94;5090697;28;21051;-82
2023/05/02 06:40:35;;;;;;;21.27;12.43;;;;;;;39.44;34.55;101016.63;5110838;28;20424;-81
2023/05/02 06:43:01;;;;;;;31.30;16.00;;;;;;;39.36;33.98;101011.97;5111499;28;20979;-79
2023/05/02 06:45:27;;;;;;;32.60;13.30;;;;;;;39.37;34.38;101024.41;5111399;28;20487;-81
2023/05/02 06:47:53;;;;;;;32.23;16.27;;;;;;;39.46;34.31;101038.81;5111495;28;20527;-80
2023/05/02 06:50:19;;;;;;;26.70;14.20;;;;;;;39.32;34.52;101047.06;5110822;28;20411;-80
2023/05/02 06:52:45;;;;;;;34.50;16.50;;;;;;;39.39;34.41;101039.25;5112918;28;20448;-82
2023/05/02 06:55:11;;;;;;;35.67;15.00;;;;;;;39.45;34.53;101042.66;5111236;28;20469;-80
2023/05/02 06:57:37;;;;;;;36.60;18.50;;;;;;;39.54;34.31;101046.22;5112702;28;20696;-82
2023/05/02 07:00:03;;;;;;;24.40;15.20;;;;;;;39.49;34.60;101044.44;5100307;28;20209;-82
2023/05/02 07:02:29;;;;;;;38.43;15.80;;;;;;;39.58;34.59;101063.47;5092767;28;20451;-83
2023/05/02 07:04:55;;;;;;;25.83;15.77;;;;;;;39.66;34.52;101051.09;5094435;28;20460;-81
2023/05/02 07:07:21;;;;;;;36.20;15.33;;;;;;;39.75;33.85;101065.47;5094977;28;20616;-77
2023/05/02 07:09:47;;;;;;;36.53;14.83;;;;;;;39.81;34.14;101063.44;5093928;28;20195;-80
2023/05/02 07:12:13;;;;;;;35.10;18.13;;;;;;;39.92;34.02;101064.75;5091502;28;20261;-82
2023/05/02 07:14:39;;;;;;;29.10;13.60;;;;;;;39.88;33.81;101077.34;5092502;28;20523;-83
2023/05/02 07:17:05;;;;;;;35.37;15.13;;;;;;;39.87;33.98;101078.47;5112216;28;20603;-83
2023/05/02 07:19:31;;;;;;;25.83;15.03;;;;;;;39.89;33.87;101076.22;5112028;28;20443;-83
2023/05/02 07:21:57;;;;;;;24.37;12.27;;;;;;;39.80;34.28;101080.84;5112519;28;20178;-83
2023/05/02 07:24:23;;;;;;;33.10;13.27;;;;;;;39.79;34.57;101077.31;5112238;28;20444;-82
2023/05/02 07:26:49;;;;;;;25.87;14.17;;;;;;;39.78;34.82;101075.72;5104929;28;20998;-81
2023/05/02 07:29:15;;;;;;;29.80;11.63;;;;;;;39.85;34.05;101078.00;5104953;28;20651;-80
2023/05/02 07:31:41;;;;;;;37.50;14.57;;;;;;;39.87;34.28;101087.41;5094635;28;20423;-82
2023/05/02 07:34:06;;;;;;;31.30;14.70;;;;;;;39.85;34.82;101086.13;5094105;28;20211;-82
2023/05/02 07:36:32;;;;;;;32.97;14.37;;;;;;;39.78;34.67;101091.19;5093854;28;20543;-82
2023/05/02 07:38:59;;;;;;;28.73;15.30;;;;;;;39.94;34.80;101084.22;5094336;28;20182;-81
2023/05/02 07:41:25;;;;;;;30.17;13.97;;;;;;;40.01;34.62;101074.50;5094012;28;20497;-78
2023/05/02 07:43:51;;;;;;;29.80;13.90;;;;;;;39.91;35.10;101074.81;5094057;28;20417;-80
2023/05/02 07:46:17;;;;;;;33.10;13.70;;;;;;;40.06;35.38;101070.88;5096499;28;20453;-80
2023/05/02 07:48:43;;;;;;;29.37;14.90;;;;;;;40.13;35.38;101084.78;5114286;28;20424;-80
2023/05/02 07:51:10;;;;;;;32.73;14.40;;;;;;;40.12;35.46;101085.91;5114198;28;20205;-79
2023/05/02 07:53:36;;;;;;;29.60;12.30;;;;;;;40.16;35.26;101095.03;5109241;28;20631;-80
2023/05/02 07:56:07;;;;;;;20.83;11.90;;;;;;;40.11;35.92;101107.97;5094418;28;20428;-80
2023/05/02 07:58:35;;;;;;;26.23;11.77;;;;;;;40.08;35.40;101103.94;5101225;28;20190;-80
2023/05/02 08:01:02;;;;;;;21.23;11.43;;;;;;;40.20;35.98;101103.34;5098595;28;20440;-80
2023/05/02 08:03:29;;;;;;;22.67;11.47;;;;;;;40.22;36.04;101122.88;5114015;28;20419;-80
2023/05/02 08:05:56;;;;;;;26.67;14.80;;;;;;;40.34;36.27;101119.53;5114017;28;20467;-80
2023/05/02 08:08:22;;;;;;;33.63;14.43;;;;;;;40.15;36.39;101095.38;5113526;28;20485;-80
2023/05/02 08:10:50;;;;;;;25.17;11.60;;;;;;;40.35;36.32;101102.91;5107314;28;20856;-79
2023/05/02 08:13:16;;;;;;;23.60;10.37;;;;;;;40.39;36.35;101112.03;5093550;28;20498;-80
2023/05/02 08:15:42;;;;;;;25.63;12.80;;;;;;;40.47;36.47;101113.16;5093456;28;20456;-79
2023/05/02 08:18:08;;;;;;;23.73;11.47;;;;;;;40.41;36.66;101117.16;5093563;28;20911;-80
2023/05/02 08:20:35;;;;;;;32.87;12.40;;;;;;;40.41;36.59;101115.22;5092914;28;20515;-80
2023/05/02 08:23:01;;;;;;;19.03;11.47;;;;;;;40.48;36.42;101109.34;5076899;28;20456;-82
2023/05/02 08:25:27;;;;;;;23.17;10.93;;;;;;;40.50;36.55;101107.13;5097897;28;20511;-80
2023/05/02 08:27:53;;;;;;;23.87;11.47;;;;;;;40.55;36.89;101110.47;5097418;28;20811;-80
2023/05/02 08:30:18;;;;;;;27.20;10.97;;;;;;;40.63;36.90;101098.00;5092715;28;20432;-82
2023/05/02 08:32:46;;;;;;;18.63;9.87;;;;;;;40.66;36.98;101102.00;5092724;28;20755;-80
2023/05/02 08:35:11;;;;;;;28.57;10.90;;;;;;;40.72;36.74;101106.19;5094299;28;20931;-81
2023/05/02 08:37:38;;;;;;;25.60;11.40;;;;;;;40.75;36.82;101108.25;5092768;28;20424;-81
2023/05/02 08:40:05;;;;;;;32.20;12.83;;;;;;;40.76;36.76;101109.84;5075588;28;20428;-81
2023/05/02 08:42:33;;;;;;;30.17;10.63;;;;;;;40.80;37.12;101110.81;5092730;28;20891;-81
2023/05/02 08:45:03;;;;;;;29.90;11.37;;;;;;;40.83;36.89;101112.91;5093826;28;20464;-81
2023/05/02 08:47:31;;;;;;;33.67;11.93;;;;;;;40.85;36.94;101118.00;5091789;28;20794;-81
2023/05/02 08:49:59;;;;;;;24.73;10.73;;;;;;;40.81;37.06;101115.13;5106794;28;20539;-83
2023/05/02 08:52:26;;;;;;;17.53;9.00;;;;;;;40.79;37.49;101114.66;5092992;28;20428;-82
2023/05/02 08:54:53;;;;;;;24.77;7.70;;;;;;;40.94;36.92;101127.78;5092194;28;20424;-81
2023/05/02 08:57:19;;;;;;;20.67;9.57;;;;;;;40.96;37.28;101127.50;5092177;28;20535;-81
2023/05/02 08:59:45;;;;;;;21.77;7.20;;;;;;;40.96;37.15;101138.38;5091157;28;20443;-81
2023/05/02 09:02:38;;;;;;;26.63;8.00;;;;;;;40.98;37.25;101134.19;5092234;28;20493;-81
2023/05/02 09:05:07;;;;;;;17.60;7.07;;;;;;;41.00;37.19;101137.38;5092160;28;20460;-81
2023/05/02 09:07:45;;;;;;;11.20;5.50;;;;;;;41.02;37.21;101132.44;5091706;28;20412;-81
2023/05/02 09:10:11;;;;;;;27.87;8.07;;;;;;;41.01;36.64;101138.22;5092357;28;20634;-80
2023/05/02 09:12:37;;;;;;;17.23;7.17;;;;;;;41.00;36.77;101131.16;5111812;28;21030;-80
2023/05/02 09:15:15;;;;;;;26.07;8.40;;;;;;;41.03;37.11;101141.41;5098195;28;20191;-81
2023/05/02 09:17:47;;;;;;;24.73;7.90;;;;;;;41.07;37.46;101137.72;5091948;28;20480;-80
2023/05/02 09:20:15;;;;;;;25.07;7.77;;;;;;;41.07;37.16;101137.72;5105342;28;20428;-79
2023/05/02 09:22:49;;;;;;;22.47;7.40;;;;;;;41.10;37.38;101141.72;5091819;28;20459;-80
2023/05/02 09:25:15;;;;;;;22.30;9.13;;;;;;;41.17;36.97;101143.94;5106637;28;20459;-79
2023/05/02 09:27:55;;;;;;;18.87;8.50;;;;;;;41.08;37.34;101138.53;5111184;28;20452;-77
2023/05/02 09:30:25;;;;;;;22.97;10.40;;;;;;;41.11;37.23;101148.75;5105848;28;20435;-79
2023/05/02 09:32:55;;;;;;;20.20;6.67;;;;;;;41.05;37.56;101139.16;5091720;28;21008;-79
2023/05/02 09:35:23;;;;;;;24.03;7.53;;;;;;;41.13;37.60;101130.19;5106991;28;21019;-79
2023/05/02 09:37:55;;;;;;;18.80;8.03;;;;;;;41.03;37.29;101116.91;5108548;28;20844;-79
2023/05/02 09:40:23;;;;;;;18.17;8.97;;;;;;;41.15;37.56;101130.66;5092249;28;20417;-79
2023/05/02 09:42:49;;;;;;;31.30;8.93;;;;;;;41.13;37.65;101135.63;5111909;28;20452;-79
2023/05/02 09:45:25;;;;;;;22.10;8.00;;;;;;;41.18;37.25;101135.44;5097725;28;20581;-78
2023/05/02 09:47:52;;;;;;;15.27;7.40;;;;;;;41.19;37.76;101141.69;5091611;28;20501;-78
2023/05/02 09:50:36;;;;;;;24.17;8.60;;;;;;;41.15;38.03;101133.38;5092010;28;20421;-79
2023/05/02 09:53:07;;;;;;;18.40;9.17;;;;;;;41.20;37.93;101133.22;5111811;28;20423;-79
2023/05/02 09:55:33;;;;;;;18.40;10.23;;;;;;;41.26;37.31;101131.94;5095579;28;20405;-78
2023/05/02 09:58:00;;;;;;;20.30;7.80;;;;;;;41.24;37.18;101136.88;5091438;28;20423;-79
2023/05/02 10:00:42;;;;;;;15.80;7.60;;;;;;;41.25;37.28;101148.56;5092814;28;20813;-78
2023/05/02 10:03:08;;;;;;;19.60;8.70;;;;;;;41.30;37.10;101135.59;5091090;28;20432;-79
2023/05/02 10:05:39;;;;;;;17.33;7.23;;;;;;;41.14;37.61;101136.44;5091528;28;20457;-78
2023/05/02 10:08:06;;;;;;;20.70;8.57;;;;;;;41.24;38.11;101115.09;5096711;28;20944;-78
2023/05/02 10:10:40;;;;;;;18.30;8.37;;;;;;;41.29;37.77;101125.81;5109339;28;20438;-78
2023/05/02 10:13:08;;;;;;;20.60;8.60;;;;;;;41.35;37.90;101140.09;5091502;28;20462;-78
2023/05/02 10:15:41;;;;;;;16.23;7.40;;;;;;;41.31;37.58;101122.78;5091285;28;20990;-77
2023/05/02 10:18:18;;;;;;;20.50;7.57;;;;;;;41.29;37.69;101123.09;5093025;28;20429;-77
2023/05/02 10:20:52;;;;;;;15.50;8.17;;;;;;;41.32;38.04;101121.69;5091231;28;20423;-79
2023/05/02 10:23:20;;;;;;;16.00;8.10;;;;;;;41.36;37.68;101122.63;5091626;28;20436;-82
2023/05/02 10:25:46;;;;;;;17.57;7.67;;;;;;;41.42;37.84;101110.44;5091160;28;20479;-79
2023/05/02 10:28:13;;;;;;;23.47;8.33;;;;;;;41.29;38.01;101081.47;5091334;28;20503;-79
2023/05/02 10:30:40;;;;;;;16.77;8.00;;;;;;;41.49;37.88;101096.34;5091468;28;20452;-79
2023/05/02 10:33:06;;;;;;;17.87;7.53;;;;;;;41.53;38.09;101097.28;5078684;28;20416;-79
2023/05/02 10:35:32;;;;;;;15.60;7.00;;;;;;;41.52;37.86;101079.34;5095922;28;20412;-80
2023/05/02 10:38:00;;;;;;;18.50;6.03;;;;;;;41.63;37.86;101098.88;5095331;28;20450;-82
2023/05/02 10:40:26;;;;;;;19.17;8.63;;;;;;;41.64;37.85;101093.09;5096272;28;20417;-81
2023/05/02 10:42:53;;;;;;;17.70;8.10;;;;;;;41.70;37.57;101082.81;5115689;28;20412;-82
2023/05/02 10:45:37;;;;;;;14.90;6.90;;;;;;;41.72;37.65;101097.69;5115516;28;20534;-79
2023/05/02 10:48:26;;;;;;;19.83;6.80;;;;;;;41.82;37.57;101094.63;5115542;28;20930;-80
2023/05/02 10:50:57;;;;;;;13.20;7.47;;;;;;;41.82;37.59;101088.41;5111136;28;20416;-80
2023/05/02 10:53:31;;;;;;;11.87;5.27;;;;;;;41.79;37.56;101095.28;5096636;28;20401;-80
2023/05/02 10:56:15;;;;;;;18.43;6.47;;;;;;;41.87;37.40;101088.22;5095076;28;20445;-79
2023/05/02 10:58:43;;;;;;;16.50;7.40;;;;;;;41.90;37.75;101087.53;5095033;28;20417;-80
2023/05/02 11:01:41;;;;;;;25.00;11.07;;;;;;;41.81;37.38;101076.69;5094895;28;20946;-80
2023/05/02 11:04:09;;;;;;;17.70;8.23;;;;;;;41.88;37.79;101089.00;5072501;28;20448;-79
2023/05/02 11:06:55;;;;;;;19.27;8.13;;;;;;;41.81;37.58;101076.69;5096311;28;20440;-79
2023/05/02 11:09:24;;;;;;;16.73;6.90;;;;;;;41.79;37.74;101080.88;5094592;28;20420;-78
2023/05/02 11:11:56;;;;;;;14.23;6.47;;;;;;;41.86;37.20;101075.69;5092821;28;20427;-79
2023/05/02 11:14:24;;;;;;;15.63;7.23;;;;;;;41.97;37.80;101092.47;5095985;28;20516;-79
2023/05/02 11:17:10;;;;;;;18.30;8.73;;;;;;;41.97;37.53;101082.38;5094373;28;20436;-79
2023/05/02 11:19:36;;;;;;;21.80;8.93;;;;;;;41.98;37.66;101080.44;5093898;28;20815;-79
2023/05/02 11:22:30;;;;;;;15.10;6.47;;;;;;;41.97;38.03;101076.13;5094176;28;20959;-83
2023/05/02 11:24:56;;;;;;;11.53;6.43;;;;;;;42.01;37.59;101064.25;5091228;28;20210;-82
2023/05/02 11:27:29;;;;;;;20.43;6.07;;;;;;;42.08;37.77;101066.44;5093256;28;20889;-84
2023/05/02 11:30:05;;;;;;;15.27;4.97;;;;;;;42.06;37.55;101060.53;5106411;28;20465;-83
2023/05/02 11:32:44;;;;;;;12.57;5.70;;;;;;;42.06;37.53;101063.25;5131656;27;20816;-83